createdAt,value
2019-05-01T18:41:37.724Z,16.23
2019-05-01T18:44:10.005Z,17.45
2019-05-01T18:46:33.861Z,15.80
2019-05-01T18:49:00.627Z,15.63
2019-05-01T18:51:26.770Z,13.60
2019-05-01T18:53:57.484Z,11.78
2019-05-01T18:56:21.206Z,16.05
2019-05-01T18:58:47.502Z,15.28
2019-05-01T19:01:14.070Z,15.75
2019-05-01T19:03:42.492Z,13.00
2019-05-01T19:06:08.447Z,16.73
2019-05-01T19:08:34.732Z,20.02
2019-05-01T19:11:11.680Z,17.15
2019-05-01T19:13:29.075Z,16.10
2019-05-01T19:15:55.226Z,16.32
2019-05-01T19:18:21.349Z,13.55
2019-05-01T19:20:58.917Z,20.60
2019-05-01T19:23:16.064Z,24.37
2019-05-01T19:25:44.048Z,21.85
2019-05-01T19:28:12.183Z,16.55
2019-05-01T19:30:38.486Z,17.87
2019-05-01T19:33:04.691Z,14.05
2019-05-01T19:35:34.124Z,17.92
2019-05-01T19:37:59.068Z,15.58
2019-05-01T19:40:30.408Z,11.97
2019-05-01T19:42:58.084Z,24.72
2019-05-01T19:45:21.853Z,28.23
2019-05-01T19:47:48.085Z,16.17
2019-05-01T19:50:14.669Z,15.50
2019-05-01T19:52:40.816Z,37.42
2019-05-01T19:55:07.739Z,26.10
2019-05-01T19:57:34.077Z,16.90
2019-05-01T20:00:00.159Z,21.23
2019-05-01T20:02:26.383Z,17.02
2019-05-01T20:04:52.571Z,17.10
2019-05-01T20:07:21.528Z,21.12
2019-05-01T20:09:56.704Z,40.75
2019-05-01T20:12:15.095Z,22.85
2019-05-01T20:14:41.322Z,18.73
2019-05-01T20:17:10.095Z,22.20
2019-05-01T20:19:35.533Z,23.67
2019-05-01T20:22:01.731Z,25.68
2019-05-01T20:24:27.812Z,30.85
2019-05-01T20:27:29.276Z,24.37
2019-05-01T20:29:55.315Z,23.12
2019-05-01T20:32:26.331Z,19.42
2019-05-01T20:34:52.803Z,16.02
2019-05-01T20:37:18.414Z,33.95
2019-05-01T20:39:44.566Z,19.27
2019-05-01T20:42:10.733Z,25.15
2019-05-01T20:44:39.756Z,25.52
2019-05-01T20:47:05.786Z,26.27
2019-05-01T20:49:31.908Z,24.10
2019-05-01T20:51:57.926Z,31.50
2019-05-01T20:54:24.051Z,19.95
2019-05-01T20:56:51.884Z,13.05
2019-05-01T20:59:18.225Z,14.58
2019-05-01T21:01:44.459Z,24.25
2019-05-01T21:04:12.403Z,34.60
2019-05-01T21:06:43.732Z,23.57
2019-05-01T21:09:15.594Z,21.33
2019-05-01T21:11:47.377Z,28.45
2019-05-01T21:14:22.002Z,27.42
2019-05-01T21:16:44.023Z,27.02
2019-05-01T21:19:10.254Z,31.10
2019-05-01T21:21:36.430Z,24.10
2019-05-01T21:24:03.667Z,24.67
2019-05-01T21:26:29.995Z,20.55
2019-05-01T21:28:56.605Z,19.90
2019-05-01T21:31:24.054Z,22.70
2019-05-01T21:33:50.665Z,20.75
2019-05-01T21:36:16.978Z,21.23
2019-05-01T21:38:43.182Z,14.10
2019-05-01T21:41:09.338Z,18.17
2019-05-01T21:43:37.096Z,21.55
2019-05-01T21:46:04.047Z,18.10
2019-05-01T21:48:30.369Z,17.95
2019-05-01T21:50:58.078Z,14.83
2019-05-01T21:53:24.512Z,18.50
2019-05-01T21:55:50.729Z,17.90
2019-05-01T21:58:21.071Z,18.25
2019-05-01T22:00:45.639Z,13.98
2019-05-01T22:03:11.847Z,16.82
2019-05-01T22:05:39.700Z,16.37
2019-05-01T22:08:06.028Z,17.85
2019-05-01T22:10:32.189Z,17.27
2019-05-01T22:12:58.647Z,21.77
2019-05-01T22:15:42.063Z,23.52
2019-05-01T22:18:27.274Z,29.87
2019-05-01T22:21:07.617Z,27.30
2019-05-01T22:23:50.858Z,27.25
2019-05-01T22:26:17.470Z,34.35
2019-05-01T22:28:50.129Z,43.30
2019-05-01T22:31:36.420Z,36.20
2019-05-01T22:34:07.402Z,41.35
2019-05-01T22:36:33.626Z,43.87
2019-05-01T22:39:02.192Z,49.18
2019-05-01T22:41:27.881Z,57.20
2019-05-01T22:43:54.013Z,50.20
2019-05-01T22:46:22.050Z,58.33
2019-05-01T22:48:48.169Z,56.25
2019-05-01T22:51:16.260Z,53.38
2019-05-01T22:53:42.376Z,50.25
2019-05-01T22:56:08.402Z,52.33
2019-05-01T22:58:34.440Z,51.65
2019-05-01T23:01:00.967Z,44.50
2019-05-01T23:03:29.016Z,54.15
2019-05-01T23:05:55.254Z,27.75
2019-05-01T23:08:21.382Z,21.70
2019-05-01T23:10:48.563Z,39.53
2019-05-01T23:13:14.836Z,50.67
2019-05-01T23:15:41.064Z,53.85
2019-05-01T23:18:10.562Z,44.55
2019-05-01T23:20:39.095Z,46.92
2019-05-01T23:23:03.652Z,43.55
2019-05-01T23:25:29.777Z,42.05
2019-05-01T23:27:59.647Z,39.25
2019-05-01T23:30:24.151Z,40.43
2019-05-01T23:32:50.292Z,45.75
2019-05-01T23:35:16.411Z,39.90
2019-05-01T23:37:42.542Z,38.80
2019-05-01T23:40:10.851Z,41.77
2019-05-01T23:42:37.491Z,35.28
2019-05-01T23:45:05.022Z,38.25
2019-05-01T23:47:31.147Z,35.75
2019-05-01T23:49:57.306Z,29.67
2019-05-01T23:52:23.462Z,26.23
2019-05-01T23:54:49.602Z,26.45
2019-05-01T23:57:18.863Z,28.30
2019-05-01T23:59:43.988Z,24.70
